Time;durP1;ratioP1;P1;durP2;ratioP2;P2;SDS_P1;SDS_P2;PMS_P1;PMS_P2;Temp;Humidity;BMP_temperature;BMP_pressure;BME280_temperature;BME280_humidity;BME280_pressure;Samples;Min_cycle;Max_cycle;Signal;HPM_P1;HPM_P2
2021/07/24 00:00:30;;;;;;;28.93;25.10;;;;;;;17.54;100.00;98999.28;2088588;28;20528;-75
2021/07/24 00:01:32;;;;;;;28.27;25.03;;;;;;;17.48;100.00;99004.16;2079968;28;20454;-75
2021/07/24 00:02:32;;;;;;;29.57;26.43;;;;;;;17.44;100.00;99002.47;2088348;28;20700;-76
2021/07/24 00:03:35;;;;;;;28.33;25.70;;;;;;;17.39;100.00;99003.50;2088569;28;20545;-76
2021/07/24 00:04:36;;;;;;;29.47;26.43;;;;;;;17.37;100.00;99004.94;2089266;28;20250;-76
2021/07/24 00:05:37;;;;;;;28.60;25.63;;;;;;;17.34;100.00;99009.13;2088008;28;20525;-74
2021/07/24 00:06:38;;;;;;;27.73;25.20;;;;;;;17.31;100.00;99009.81;2088415;28;20266;-75
2021/07/24 00:07:39;;;;;;;28.70;25.83;;;;;;;17.28;100.00;99007.78;2088228;28;20473;-75
2021/07/24 00:08:40;;;;;;;29.10;26.10;;;;;;;17.39;100.00;99008.13;2088273;28;20305;-75
2021/07/24 00:09:42;;;;;;;29.23;26.30;;;;;;;17.39;100.00;99008.91;2088133;28;20971;-75
2021/07/24 00:10:42;;;;;;;28.80;26.10;;;;;;;17.36;100.00;99008.78;2088328;28;20230;-75
2021/07/24 00:11:44;;;;;;;28.83;25.93;;;;;;;17.33;100.00;99014.88;2088435;28;20437;-75
2021/07/24 00:12:44;;;;;;;29.83;26.77;;;;;;;17.35;100.00;99004.50;2080361;28;20250;-76
2021/07/24 00:13:46;;;;;;;29.63;26.53;;;;;;;17.36;100.00;99006.88;2080001;28;20451;-75
2021/07/24 00:14:46;;;;;;;29.30;26.30;;;;;;;17.31;100.00;99003.63;2088443;28;20306;-75
2021/07/24 00:15:48;;;;;;;27.77;25.27;;;;;;;17.34;100.00;99009.13;2089116;28;20445;-76
2021/07/24 00:16:49;;;;;;;28.10;25.50;;;;;;;17.39;100.00;99003.50;2089153;28;20215;-76
2021/07/24 00:17:50;;;;;;;29.13;26.40;;;;;;;17.35;100.00;98999.91;2088136;28;20434;-76
2021/07/24 00:18:52;;;;;;;28.83;26.07;;;;;;;17.28;100.00;98999.69;2088317;28;20273;-75
2021/07/24 00:19:54;;;;;;;28.87;25.97;;;;;;;17.22;100.00;98993.00;2088093;28;20547;-76
2021/07/24 00:20:54;;;;;;;28.80;26.13;;;;;;;17.14;100.00;98994.69;2088994;28;20485;-75
2021/07/24 00:21:56;;;;;;;28.20;25.33;;;;;;;17.09;100.00;98996.84;2088945;28;20449;-75
2021/07/24 00:22:57;;;;;;;28.57;25.77;;;;;;;17.08;100.00;98998.75;2088822;28;20238;-76
2021/07/24 00:23:58;;;;;;;28.63;25.83;;;;;;;17.04;100.00;98995.16;2088911;28;20441;-75
2021/07/24 00:24:59;;;;;;;27.97;25.37;;;;;;;17.00;100.00;98991.56;2089089;28;20249;-75
2021/07/24 00:26:01;;;;;;;29.60;26.30;;;;;;;16.97;100.00;98994.16;2088261;28;20446;-75
2021/07/24 00:27:02;;;;;;;29.03;26.00;;;;;;;17.00;100.00;98998.88;2088490;28;20321;-75
2021/07/24 00:28:04;;;;;;;29.53;25.23;;;;;;;17.01;100.00;99000.44;2088931;28;20445;-76
2021/07/24 00:29:05;;;;;;;29.57;26.00;;;;;;;16.99;100.00;98992.69;2088171;28;20668;-76
2021/07/24 00:30:08;;;;;;;28.53;25.60;;;;;;;17.00;100.00;98994.25;2088426;28;20462;-75
2021/07/24 00:31:11;;;;;;;28.33;25.40;;;;;;;17.01;100.00;98995.03;2087802;28;20533;-75
2021/07/24 00:32:18;;;;;;;27.33;24.83;;;;;;;16.99;100.00;99000.78;2080695;28;20540;-75
2021/07/24 00:33:19;;;;;;;28.33;25.67;;;;;;;16.97;100.00;99000.34;2088273;28;20986;-76
2021/07/24 00:34:22;;;;;;;28.10;25.40;;;;;;;16.89;100.00;98993.94;2088317;28;20834;-75
2021/07/24 00:35:22;;;;;;;28.10;25.30;;;;;;;16.81;100.00;98991.38;2087916;28;20727;-75
2021/07/24 00:36:24;;;;;;;28.80;25.70;;;;;;;16.75;100.00;98988.13;2088969;28;20812;-75
2021/07/24 00:37:25;;;;;;;28.30;25.63;;;;;;;16.76;100.00;98989.69;2088277;28;20223;-75
2021/07/24 00:38:27;;;;;;;28.47;25.77;;;;;;;16.72;100.00;98996.09;2088086;28;20455;-75
2021/07/24 00:39:27;;;;;;;28.27;25.60;;;;;;;16.72;100.00;98986.09;2088883;28;20578;-76
2021/07/24 00:40:31;;;;;;;27.13;24.73;;;;;;;16.75;100.00;98993.50;2088966;28;20452;-76
2021/07/24 00:41:38;;;;;;;28.00;25.07;;;;;;;16.75;100.00;98998.91;2088967;28;20572;-76
2021/07/24 00:42:40;;;;;;;35.07;26.10;;;;;;;16.72;100.00;98996.88;2088399;28;20938;-75
2021/07/24 00:43:41;;;;;;;29.20;26.13;;;;;;;16.64;100.00;98993.16;2088106;28;20978;-75
2021/07/24 00:44:45;;;;;;;29.07;26.07;;;;;;;16.60;100.00;98986.88;2088159;28;20499;-75
2021/07/24 00:45:47;;;;;;;28.53;25.80;;;;;;;16.58;100.00;98988.31;2088417;28;20939;-76
2021/07/24 00:46:50;;;;;;;28.67;25.87;;;;;;;16.60;100.00;98992.28;2088019;28;20457;-75
2021/07/24 00:47:54;;;;;;;28.57;25.80;;;;;;;16.63;100.00;98996.97;2088047;28;20783;-76
2021/07/24 00:49:08;;;;;;;29.13;26.27;;;;;;;16.62;100.00;98989.22;2087521;28;20461;-74
2021/07/24 00:50:17;;;;;;;28.90;26.13;;;;;;;16.69;100.00;98994.09;2088193;28;21011;-75
2021/07/24 00:51:26;;;;;;;29.13;26.23;;;;;;;16.67;100.00;98992.47;2088869;28;20444;-75
2021/07/24 00:52:27;;;;;;;28.47;25.67;;;;;;;16.72;100.00;98999.59;2087544;28;20484;-75
2021/07/24 00:53:35;;;;;;;28.13;25.63;;;;;;;16.77;100.00;98993.97;2088116;28;20441;-75
2021/07/24 00:54:36;;;;;;;29.03;26.00;;;;;;;16.79;100.00;98989.03;2088752;28;20230;-75
2021/07/24 00:55:38;;;;;;;28.30;25.27;;;;;;;16.78;100.00;98998.25;2087871;28;20457;-74
2021/07/24 00:56:39;;;;;;;28.30;25.30;;;;;;;16.76;100.00;98989.69;2088163;28;20457;-75
2021/07/24 00:57:41;;;;;;;28.80;25.90;;;;;;;16.77;100.00;98995.88;2088476;28;20446;-75
2021/07/24 00:58:42;;;;;;;29.10;26.07;;;;;;;16.71;100.00;98987.25;2088857;28;20457;-75
2021/07/24 00:59:44;;;;;;;30.00;26.90;;;;;;;16.64;100.00;98982.38;2088772;28;20461;-75
2021/07/24 01:00:44;;;;;;;29.17;26.17;;;;;;;16.63;100.00;98990.81;2087936;28;20438;-75
2021/07/24 01:01:46;;;;;;;28.97;26.17;;;;;;;16.77;100.00;98991.28;2079696;28;20525;-75
2021/07/24 01:02:47;;;;;;;29.67;26.67;;;;;;;16.70;100.00;98993.75;2080046;28;20251;-76
2021/07/24 01:03:49;;;;;;;31.47;27.57;;;;;;;16.60;100.00;98991.50;2088062;28;20997;-75
2021/07/24 01:04:50;;;;;;;30.67;26.67;;;;;;;16.50;100.00;98984.63;2088205;28;20246;-75
2021/07/24 01:05:55;;;;;;;30.67;27.67;;;;;;;16.44;100.00;98985.19;2087473;28;20473;-74
2021/07/24 01:06:56;;;;;;;29.03;26.23;;;;;;;16.55;100.00;98994.41;2088047;28;20515;-75
2021/07/24 01:07:58;;;;;;;31.93;27.40;;;;;;;16.45;100.00;98986.75;2087892;28;20798;-75
2021/07/24 01:08:59;;;;;;;29.40;26.50;;;;;;;16.42;100.00;98985.53;2079777;28;20461;-76
2021/07/24 01:10:00;;;;;;;29.70;26.73;;;;;;;16.39;100.00;98984.28;2087734;28;20529;-75
2021/07/24 01:11:03;;;;;;;30.60;27.10;;;;;;;16.34;100.00;98987.22;2079776;28;20237;-75
2021/07/24 01:12:06;;;;;;;30.03;26.97;;;;;;;16.28;100.00;98991.25;2087987;28;20488;-76
2021/07/24 01:13:09;;;;;;;30.70;27.60;;;;;;;16.22;100.00;98981.78;2087654;28;20967;-75
2021/07/24 01:14:11;;;;;;;29.47;26.57;;;;;;;16.18;100.00;98978.22;2079714;28;20815;-75
2021/07/24 01:15:12;;;;;;;30.47;27.17;;;;;;;16.17;100.00;98978.56;2079863;28;20220;-76
2021/07/24 01:16:14;;;;;;;29.97;27.07;;;;;;;16.17;100.00;98983.94;2087907;28;20484;-75
2021/07/24 01:17:17;;;;;;;29.40;26.30;;;;;;;16.17;100.00;98976.66;2088064;28;20450;-75
2021/07/24 01:18:20;;;;;;;31.20;28.20;;;;;;;16.26;100.00;98981.94;2088013;28;20487;-75
2021/07/24 01:19:21;;;;;;;31.47;28.43;;;;;;;16.25;100.00;98986.53;2087930;28;20445;-75
2021/07/24 01:20:23;;;;;;;30.37;27.43;;;;;;;16.26;100.00;98982.72;2087640;28;20453;-74
2021/07/24 01:21:26;;;;;;;31.83;28.50;;;;;;;16.29;100.00;98982.03;2079730;28;20629;-75
2021/07/24 01:22:29;;;;;;;30.10;27.00;;;;;;;16.25;100.00;98983.84;2079864;28;20561;-75
2021/07/24 01:23:30;;;;;;;31.77;28.40;;;;;;;16.24;100.00;98976.84;2088075;28;20454;-75
2021/07/24 01:24:33;;;;;;;31.43;28.40;;;;;;;16.24;100.00;98982.25;2079876;28;20454;-75
2021/07/24 01:25:41;;;;;;;31.87;28.17;;;;;;;16.20;100.00;98978.66;2079566;28;20505;-74
2021/07/24 01:26:44;;;;;;;30.42;27.23;;;;;;;16.18;100.00;98985.50;2080429;28;20489;-75
2021/07/24 01:27:45;;;;;;;31.57;28.23;;;;;;;16.32;100.00;98989.44;2079634;28;20242;-75
2021/07/24 01:28:49;;;;;;;31.03;27.90;;;;;;;16.19;100.00;98982.47;2087412;28;20449;-74
2021/07/24 01:29:51;;;;;;;31.17;27.90;;;;;;;16.14;100.00;98985.38;2087831;28;20499;-74
2021/07/24 01:31:01;;;;;;;31.83;28.40;;;;;;;16.09;100.00;98978.31;2080208;28;20785;-74
2021/07/24 01:32:02;;;;;;;31.13;27.57;;;;;;;16.13;100.00;98983.03;2087772;28;20538;-74
2021/07/24 01:33:05;;;;;;;31.63;28.33;;;;;;;16.07;100.00;98980.56;2079855;28;21003;-75
2021/07/24 01:34:06;;;;;;;31.00;28.00;;;;;;;16.14;100.00;98977.31;2079276;28;20563;-73
2021/07/24 01:35:10;;;;;;;32.13;28.67;;;;;;;16.20;100.00;98984.03;2087917;28;20246;-74
2021/07/24 01:36:11;;;;;;;32.63;29.08;;;;;;;16.23;100.00;98977.97;2088162;28;20466;-74
2021/07/24 01:37:14;;;;;;;35.15;27.90;;;;;;;16.24;100.00;98984.16;2079591;28;20235;-74
2021/07/24 01:38:16;;;;;;;31.60;27.67;;;;;;;16.14;100.00;98985.38;2079825;28;20231;-74
2021/07/24 01:39:22;;;;;;;29.93;26.93;;;;;;;16.10;100.00;98977.19;2087984;28;20251;-74
2021/07/24 01:40:24;;;;;;;30.77;27.65;;;;;;;16.13;100.00;98972.25;2079725;28;20454;-74
2021/07/24 01:41:25;;;;;;;29.80;26.80;;;;;;;16.07;100.00;98969.81;2079567;28;20227;-74
2021/07/24 01:42:26;;;;;;;30.90;27.67;;;;;;;16.05;100.00;98971.22;2079552;28;27949;-74
2021/07/24 01:43:33;;;;;;;30.02;27.10;;;;;;;16.08;100.00;98976.75;2087746;28;20512;-74
2021/07/24 01:44:34;;;;;;;32.87;27.97;;;;;;;16.09;100.00;98969.47;2088633;28;20309;-75
2021/07/24 01:45:37;;;;;;;29.57;26.70;;;;;;;16.02;100.00;98967.31;2087836;28;20462;-74
2021/07/24 01:46:38;;;;;;;29.40;26.57;;;;;;;16.01;100.00;98975.72;2079354;28;20227;-74
2021/07/24 01:47:50;;;;;;;30.43;27.13;;;;;;;15.95;100.00;98975.13;2080770;28;20461;-75
2021/07/24 01:48:54;;;;;;;32.08;28.20;;;;;;;15.90;100.00;98969.19;2079914;28;20446;-74
2021/07/24 01:52:51;;;;;;;31.95;28.63;;;;;;;15.82;100.00;98970.88;2050638;28;20497;-75
2021/07/24 01:53:55;;;;;;;33.10;29.83;;;;;;;15.78;100.00;98973.41;2055095;28;20588;-74
2021/07/24 01:55:02;;;;;;;32.97;29.67;;;;;;;15.75;100.00;98979.47;2063176;28;20228;-74
2021/07/24 01:56:08;;;;;;;33.05;29.75;;;;;;;15.72;100.00;98969.34;2063044;28;20217;-75
2021/07/24 01:57:10;;;;;;;33.00;29.70;;;;;;;15.79;100.00;98969.59;2062630;28;20229;-74
2021/07/24 01:58:17;;;;;;;34.50;30.27;;;;;;;15.79;100.00;98964.22;2060712;28;20280;-75
2021/07/24 01:59:34;;;;;;;32.57;28.97;;;;;;;15.75;100.00;98963.34;2081076;28;20235;-74
2021/07/24 02:00:36;;;;;;;33.50;29.88;;;;;;;15.73;100.00;98970.94;2080186;28;20504;-74
2021/07/24 02:01:54;;;;;;;33.93;30.53;;;;;;;15.72;100.00;98966.66;2081044;28;20701;-74
2021/07/24 02:02:56;;;;;;;34.72;30.90;;;;;;;15.70;100.00;98965.44;2079478;28;20466;-74
2021/07/24 02:04:22;;;;;;;36.17;30.38;;;;;;;15.70;100.00;98966.22;2082139;28;20215;-74
2021/07/24 02:05:39;;;;;;;33.80;29.25;;;;;;;15.79;100.00;98966.91;2087266;28;20293;-74
2021/07/24 02:06:42;;;;;;;32.47;29.27;;;;;;;15.83;100.00;98959.75;2087243;28;20230;-74
2021/07/24 02:08:02;;;;;;;32.30;28.97;;;;;;;15.95;100.00;98967.06;2081197;28;20438;-74
2021/07/24 02:09:04;;;;;;;32.45;28.95;;;;;;;15.89;100.00;98967.59;2080036;28;20882;-74
2021/07/24 02:10:06;;;;;;;32.77;29.33;;;;;;;15.82;100.00;98973.56;2081057;28;20628;-74
2021/07/24 02:11:21;;;;;;;33.25;28.48;;;;;;;15.79;100.00;98963.44;2082490;28;20446;-74
2021/07/24 02:12:22;;;;;;;32.78;29.58;;;;;;;15.75;100.00;98971.41;2088832;28;20226;-74
2021/07/24 02:13:24;;;;;;;34.97;31.23;;;;;;;15.71;100.00;98967.00;2089274;28;20669;-74
2021/07/24 02:14:27;;;;;;;33.15;29.85;;;;;;;15.69;100.00;98970.03;2089356;28;20457;-74
2021/07/24 02:15:39;;;;;;;34.75;31.02;;;;;;;15.65;100.00;98963.75;2081988;28;20226;-74
2021/07/24 02:16:40;;;;;;;35.10;31.53;;;;;;;15.65;100.00;98965.66;2081265;28;20640;-74
2021/07/24 02:17:43;;;;;;;35.50;31.70;;;;;;;15.63;100.00;98965.97;2081169;28;20461;-74
2021/07/24 02:18:45;;;;;;;37.13;32.83;;;;;;;15.63;100.00;98960.59;2089154;28;20687;-74
2021/07/24 02:20:02;;;;;;;38.90;32.58;;;;;;;15.62;100.00;98963.63;2082344;28;20219;-74
2021/07/24 02:21:05;;;;;;;36.60;32.63;;;;;;;15.62;100.00;98964.41;2081318;28;20298;-75
2021/07/24 02:22:07;;;;;;;44.22;32.70;;;;;;;15.62;100.00;98963.63;2080862;28;20677;-73
2021/07/24 02:23:16;;;;;;;42.65;32.72;;;;;;;15.61;100.00;98957.44;2081430;28;20223;-74
2021/07/24 02:24:17;;;;;;;36.67;32.83;;;;;;;15.61;100.00;98959.34;2089256;28;20279;-75
2021/07/24 02:25:18;;;;;;;38.20;32.03;;;;;;;15.59;100.00;98969.63;2089222;28;20264;-74
2021/07/24 02:26:20;;;;;;;37.53;32.28;;;;;;;15.57;100.00;98958.44;2081016;28;20230;-75
2021/07/24 02:27:21;;;;;;;37.92;33.92;;;;;;;15.55;100.00;98964.94;2089287;28;20302;-74
2021/07/24 02:28:23;;;;;;;37.70;33.47;;;;;;;15.55;100.00;98969.53;2088870;28;20238;-73
2021/07/24 02:29:24;;;;;;;40.53;32.53;;;;;;;15.55;100.00;98975.69;2089937;28;20234;-74
2021/07/24 02:30:25;;;;;;;36.27;32.70;;;;;;;15.52;100.00;98965.56;2090067;28;20231;-74
2021/07/24 02:31:26;;;;;;;42.30;34.72;;;;;;;15.53;100.00;98969.03;2089093;28;20226;-74
2021/07/24 02:32:30;;;;;;;40.72;33.58;;;;;;;15.53;100.00;98971.72;2089055;28;20250;-74
2021/07/24 02:33:32;;;;;;;39.38;33.10;;;;;;;15.51;100.00;98971.28;2081189;28;20334;-74
2021/07/24 02:34:37;;;;;;;38.40;33.03;;;;;;;15.55;100.00;98972.22;2081280;28;20693;-75
2021/07/24 02:35:37;;;;;;;37.33;33.22;;;;;;;15.57;100.00;98971.88;2088711;28;20234;-74
2021/07/24 02:36:50;;;;;;;36.90;32.00;;;;;;;15.56;100.00;98968.41;2089034;28;20218;-75
2021/07/24 02:37:50;;;;;;;38.08;30.58;;;;;;;15.55;100.00;98973.00;2089089;28;20219;-75
2021/07/24 02:38:54;;;;;;;37.13;31.33;;;;;;;15.57;100.00;98969.19;2088829;28;20224;-75
2021/07/24 02:39:55;;;;;;;34.70;31.02;;;;;;;15.56;100.00;98971.09;2089813;28;20632;-75
2021/07/24 02:40:58;;;;;;;38.58;33.08;;;;;;;15.53;100.00;98967.13;2089096;28;20230;-74
2021/07/24 02:41:58;;;;;;;35.63;31.83;;;;;;;15.56;100.00;98973.78;2089084;28;20632;-74
2021/07/24 02:43:00;;;;;;;34.27;30.90;;;;;;;15.63;100.00;98971.34;2080750;28;20293;-75
2021/07/24 02:44:03;;;;;;;34.92;31.42;;;;;;;15.58;100.00;98979.59;2089031;28;20283;-74
2021/07/24 02:45:06;;;;;;;35.47;31.67;;;;;;;15.62;100.00;98969.78;2089001;28;20227;-75
2021/07/24 02:46:06;;;;;;;34.83;31.10;;;;;;;15.73;100.00;98975.56;2080536;28;20230;-74
2021/07/24 02:47:08;;;;;;;34.63;31.07;;;;;;;15.70;100.00;98971.59;2080797;28;20273;-74
2021/07/24 02:48:11;;;;;;;35.72;32.08;;;;;;;15.65;100.00;98969.13;2080952;28;20253;-74
2021/07/24 02:49:21;;;;;;;44.47;32.78;;;;;;;15.59;100.00;98973.09;2089160;28;20281;-75
2021/07/24 02:50:23;;;;;;;35.03;31.52;;;;;;;15.58;100.00;98979.59;2080489;28;20222;-75
2021/07/24 02:51:25;;;;;;;35.95;32.33;;;;;;;15.53;100.00;98977.09;2080679;28;20279;-74
2021/07/24 02:52:27;;;;;;;35.70;31.75;;;;;;;15.50;100.00;98977.78;2089036;28;20234;-75
2021/07/24 02:53:29;;;;;;;36.40;32.17;;;;;;;15.47;100.00;98984.63;2088946;28;20248;-74
2021/07/24 02:54:31;;;;;;;37.97;33.10;;;;;;;15.44;100.00;98982.56;2080766;28;20227;-75
2021/07/24 02:55:33;;;;;;;37.92;33.10;;;;;;;15.46;100.00;98987.59;2081080;28;20817;-75
2021/07/24 02:56:33;;;;;;;35.97;32.20;;;;;;;15.44;100.00;98979.88;2088985;28;20222;-74
2021/07/24 02:57:35;;;;;;;36.23;32.30;;;;;;;15.43;100.00;98982.91;2089052;28;20361;-75
2021/07/24 02:58:36;;;;;;;33.95;30.60;;;;;;;15.43;100.00;98977.53;2080728;28;20593;-74
2021/07/24 02:59:38;;;;;;;34.80;31.23;;;;;;;15.44;100.00;98984.47;2080335;28;20227;-74
2021/07/24 03:00:39;;;;;;;33.97;30.50;;;;;;;15.54;100.00;98984.06;2080558;28;20254;-74
2021/07/24 03:01:41;;;;;;;33.97;30.63;;;;;;;15.84;100.00;98990.16;2088872;28;20237;-75
2021/07/24 03:02:42;;;;;;;32.75;29.15;;;;;;;15.92;100.00;98977.72;2089696;28;20280;-75
2021/07/24 03:03:43;;;;;;;33.97;29.30;;;;;;;16.05;100.00;98982.00;2089620;28;20231;-74
2021/07/24 03:04:44;;;;;;;34.13;30.52;;;;;;;16.03;100.00;98981.56;2089715;28;20672;-74
2021/07/24 03:05:46;;;;;;;33.15;29.67;;;;;;;15.98;100.00;98979.06;2089603;28;20276;-75
2021/07/24 03:06:46;;;;;;;33.75;30.42;;;;;;;15.96;100.00;98975.94;2089711;28;20656;-74
2021/07/24 03:07:48;;;;;;;33.60;30.17;;;;;;;15.85;100.00;98985.53;2089696;28;20245;-75
2021/07/24 03:08:49;;;;;;;35.83;31.50;;;;;;;15.76;100.00;98985.63;2088711;28;20637;-75
2021/07/24 03:09:52;;;;;;;34.53;30.83;;;;;;;15.67;100.00;98987.63;2080534;28;20230;-75
2021/07/24 03:10:52;;;;;;;33.65;30.17;;;;;;;15.60;100.00;98985.44;2088524;28;20226;-74
2021/07/24 03:11:54;;;;;;;33.83;30.43;;;;;;;15.57;100.00;98985.31;2089507;28;20227;-74
2021/07/24 03:12:55;;;;;;;34.78;31.27;;;;;;;15.48;100.00;98985.41;2089660;28;20769;-74
2021/07/24 03:13:56;;;;;;;34.80;31.03;;;;;;;15.39;100.00;98992.75;2088786;28;20590;-74
2021/07/24 03:14:58;;;;;;;35.40;31.77;;;;;;;15.33;100.00;98994.06;2088886;28;20227;-74
2021/07/24 03:15:58;;;;;;;34.78;30.00;;;;;;;15.26;100.00;98991.88;2089654;28;20724;-75
2021/07/24 03:17:00;;;;;;;32.37;28.93;;;;;;;15.23;100.00;98992.56;2089396;28;20572;-74
2021/07/24 03:18:00;;;;;;;34.28;29.65;;;;;;;15.18;100.00;98992.75;2088721;28;20685;-74
2021/07/24 03:19:02;;;;;;;33.07;29.60;;;;;;;15.16;100.00;98990.38;2088785;28;20230;-74
2021/07/24 03:20:05;;;;;;;32.92;29.45;;;;;;;15.17;100.00;98993.84;2088490;28;20219;-74
2021/07/24 03:21:06;;;;;;;33.53;29.92;;;;;;;15.24;100.00;98991.44;2088673;28;20677;-75
2021/07/24 03:22:07;;;;;;;34.65;30.95;;;;;;;15.32;100.00;98993.28;2088571;28;20237;-74
2021/07/24 03:23:08;;;;;;;32.50;29.10;;;;;;;15.39;100.00;98998.91;2080417;28;20229;-74
2021/07/24 03:24:09;;;;;;;33.70;30.02;;;;;;;15.43;100.00;98993.66;2088787;28;20239;-75
2021/07/24 03:25:12;;;;;;;35.97;29.40;;;;;;;15.69;100.00;99002.31;2088845;28;20228;-74
2021/07/24 03:26:13;;;;;;;35.92;30.25;;;;;;;15.66;100.00;98996.81;2088782;28;20320;-74
2021/07/24 03:27:17;;;;;;;40.30;30.53;;;;;;;15.56;100.00;98997.97;2089445;28;20229;-75
2021/07/24 03:28:17;;;;;;;32.22;28.92;;;;;;;15.62;100.00;98991.28;2088573;28;20219;-75
2021/07/24 03:29:19;;;;;;;33.27;29.80;;;;;;;15.54;100.00;98997.50;2080511;28;20713;-75
2021/07/24 03:30:20;;;;;;;33.30;30.02;;;;;;;15.49;100.00;98992.34;2088719;28;20229;-75
2021/07/24 03:31:21;;;;;;;33.67;30.17;;;;;;;15.60;100.00;98998.88;2088453;28;20229;-75
2021/07/24 03:32:22;;;;;;;32.22;29.13;;;;;;;15.60;100.00;98992.72;2088285;28;20242;-74
2021/07/24 03:33:24;;;;;;;31.40;28.30;;;;;;;15.51;100.00;98998.97;2089246;28;20226;-74
2021/07/24 03:34:24;;;;;;;33.55;29.88;;;;;;;15.45;100.00;98984.13;2089351;28;20309;-75
2021/07/24 03:35:26;;;;;;;32.67;29.47;;;;;;;15.50;100.00;98993.91;2089329;28;20226;-74
2021/07/24 03:36:27;;;;;;;33.03;29.70;;;;;;;15.56;100.00;98987.22;2089377;28;20230;-75
2021/07/24 03:37:28;;;;;;;33.05;29.50;;;;;;;15.49;100.00;98985.06;2089376;28;20246;-74
2021/07/24 03:38:30;;;;;;;34.20;30.80;;;;;;;15.49;100.00;98992.34;2089316;28;20226;-74
2021/07/24 03:39:31;;;;;;;33.15;29.65;;;;;;;15.59;100.00;98991.94;2089348;28;20222;-75
2021/07/24 03:40:34;;;;;;;34.03;30.20;;;;;;;15.67;100.00;98988.41;2089504;28;20223;-75
2021/07/24 03:41:35;;;;;;;33.58;30.17;;;;;;;15.66;100.00;98992.22;2088682;28;20222;-74
2021/07/24 03:42:37;;;;;;;33.38;29.75;;;;;;;15.66;100.00;98984.16;2088665;28;20219;-74
2021/07/24 03:43:37;;;;;;;33.28;30.17;;;;;;;15.62;100.00;98985.91;2088811;28;20309;-74
2021/07/24 03:44:39;;;;;;;33.43;29.83;;;;;;;15.60;100.00;98993.50;2089377;28;20234;-74
2021/07/24 03:45:40;;;;;;;33.13;29.67;;;;;;;15.57;100.00;98986.09;2089331;28;20231;-74
2021/07/24 03:46:41;;;;;;;34.57;29.57;;;;;;;15.56;100.00;98992.59;2088713;28;20231;-74
2021/07/24 03:47:42;;;;;;;32.53;29.25;;;;;;;15.53;100.00;98995.94;2088640;28;20235;-74
2021/07/24 03:48:43;;;;;;;31.77;28.27;;;;;;;15.53;100.00;98987.88;2089387;28;20233;-74
2021/07/24 03:49:44;;;;;;;32.33;28.73;;;;;;;15.63;100.00;98992.84;2089358;28;20257;-74
2021/07/24 03:50:46;;;;;;;33.33;29.37;;;;;;;15.65;100.00;98998.72;2089412;28;20226;-74
2021/07/24 03:51:47;;;;;;;33.83;29.42;;;;;;;15.62;100.00;98993.19;2089291;28;20275;-74
2021/07/24 03:52:48;;;;;;;34.53;29.40;;;;;;;15.58;100.00;99001.13;2089226;28;20758;-75
2021/07/24 03:53:49;;;;;;;32.07;29.00;;;;;;;15.52;100.00;98991.69;2088429;28;20226;-74
2021/07/24 03:54:50;;;;;;;36.13;30.20;;;;;;;15.46;100.00;98991.13;2088553;28;20445;-75
2021/07/24 03:55:54;;;;;;;33.70;29.80;;;;;;;15.42;100.00;98997.47;2088711;28;20314;-75
2021/07/24 03:56:55;;;;;;;34.80;30.77;;;;;;;15.39;100.00;98998.13;2080065;28;20231;-74
2021/07/24 03:57:57;;;;;;;34.50;30.80;;;;;;;15.37;100.00;98995.75;2088523;28;20715;-75
2021/07/24 03:58:58;;;;;;;33.30;30.00;;;;;;;15.35;100.00;98991.81;2089305;28;20576;-74
2021/07/24 04:00:02;;;;;;;33.13;29.48;;;;;;;15.31;100.00;98991.69;2089239;28;20229;-75
2021/07/24 04:01:06;;;;;;;32.67;29.38;;;;;;;15.30;100.00;98992.03;2089133;28;20230;-75
2021/07/24 04:02:11;;;;;;;32.80;29.45;;;;;;;15.34;100.00;98990.25;2088025;28;20226;-73
2021/07/24 04:03:13;;;;;;;38.03;29.90;;;;;;;15.44;100.00;98997.91;2088522;28;20285;-75
2021/07/24 04:04:16;;;;;;;33.03;29.30;;;;;;;15.58;100.00;99006.50;2088986;28;20227;-74
2021/07/24 04:05:18;;;;;;;34.80;29.37;;;;;;;15.65;100.00;99004.09;2088707;28;20540;-74
2021/07/24 04:06:21;;;;;;;33.17;29.38;;;;;;;15.68;100.00;99003.44;2088447;28;20469;-75
2021/07/24 04:07:22;;;;;;;32.72;29.33;;;;;;;15.70;100.00;99009.25;2088089;28;20301;-74
2021/07/24 04:08:24;;;;;;;33.73;30.17;;;;;;;15.65;100.00;99006.78;2089136;28;20234;-74
2021/07/24 04:09:26;;;;;;;34.17;30.63;;;;;;;15.61;100.00;98997.78;2088053;28;20465;-75
2021/07/24 04:10:27;;;;;;;35.58;30.98;;;;;;;15.57;100.00;99004.16;2088430;28;20990;-75
2021/07/24 04:11:30;;;;;;;32.67;29.40;;;;;;;15.52;100.00;99003.22;2088995;28;20583;-75
2021/07/24 04:12:31;;;;;;;36.70;31.53;;;;;;;15.52;100.00;99007.81;2089133;28;20226;-75
2021/07/24 04:13:33;;;;;;;35.27;31.47;;;;;;;15.51;100.00;99008.94;2088271;28;20450;-75
2021/07/24 04:14:33;;;;;;;35.08;31.45;;;;;;;15.51;100.00;99000.88;2088286;28;20227;-75
2021/07/24 04:15:36;;;;;;;38.80;32.13;;;;;;;15.52;100.00;99002.44;2088546;28;20226;-75
2021/07/24 04:16:37;;;;;;;35.50;31.58;;;;;;;15.55;100.00;99004.47;2088113;28;20692;-74
2021/07/24 04:17:38;;;;;;;36.13;31.60;;;;;;;15.53;100.00;99001.31;2088639;28;20590;-74
2021/07/24 04:18:39;;;;;;;35.78;31.83;;;;;;;15.53;100.00;98993.25;2080046;28;20631;-74
2021/07/24 04:19:41;;;;;;;35.67;32.20;;;;;;;15.55;100.00;99001.78;2088348;28;20223;-74
2021/07/24 04:20:41;;;;;;;35.28;31.77;;;;;;;15.55;100.00;98999.09;2089168;28;20253;-75
2021/07/24 04:21:43;;;;;;;34.57;31.10;;;;;;;15.57;100.00;98996.06;2088977;28;20676;-74
2021/07/24 04:22:44;;;;;;;35.17;31.38;;;;;;;15.57;100.00;98998.75;2089257;28;20226;-74
2021/07/24 04:23:45;;;;;;;33.87;30.43;;;;;;;15.57;100.00;98996.88;2088506;28;20242;-75
2021/07/24 04:24:46;;;;;;;35.38;31.70;;;;;;;15.59;100.00;98997.31;2088349;28;20578;-74
2021/07/24 04:25:47;;;;;;;34.60;31.10;;;;;;;15.62;100.00;98993.97;2088969;28;20305;-74
2021/07/24 04:26:49;;;;;;;38.28;32.75;;;;;;;15.64;100.00;98991.00;2088077;28;20584;-74
2021/07/24 04:27:51;;;;;;;35.60;30.70;;;;;;;15.65;100.00;98996.03;2087982;28;20296;-74
2021/07/24 04:28:52;;;;;;;35.38;31.45;;;;;;;15.65;100.00;98996.03;2087865;28;20719;-73
2021/07/24 04:29:53;;;;;;;33.23;30.10;;;;;;;15.67;100.00;98993.00;2088897;28;20591;-74
2021/07/24 04:30:54;;;;;;;34.85;30.95;;;;;;;15.69;100.00;98991.53;2088402;28;20313;-74
2021/07/24 04:31:55;;;;;;;34.70;31.13;;;;;;;15.71;100.00;98989.31;2087751;28;20680;-74
2021/07/24 04:32:56;;;;;;;35.20;31.05;;;;;;;15.74;100.00;98993.25;2087941;28;20575;-74
2021/07/24 04:33:58;;;;;;;34.70;30.60;;;;;;;15.73;100.00;98992.47;2079889;28;20249;-75
2021/07/24 04:34:59;;;;;;;34.15;30.95;;;;;;;15.75;100.00;98990.22;2088329;28;20234;-74
2021/07/24 04:36:00;;;;;;;34.90;31.27;;;;;;;15.76;100.00;98986.41;2089061;28;20302;-74
2021/07/24 04:37:01;;;;;;;38.63;31.88;;;;;;;15.79;100.00;98984.97;2089013;28;20575;-74
2021/07/24 04:38:02;;;;;;;33.83;30.43;;;;;;;15.82;100.00;98978.94;2089122;28;20223;-75
2021/07/24 04:39:03;;;;;;;33.90;30.67;;;;;;;15.83;100.00;98991.28;2089035;28;20664;-75
2021/07/24 04:40:06;;;;;;;34.50;30.83;;;;;;;15.86;100.00;98985.22;2088918;28;20445;-74
2021/07/24 04:41:06;;;;;;;35.60;32.10;;;;;;;15.90;100.00;98982.63;2087678;28;20234;-74
2021/07/24 04:42:09;;;;;;;35.67;31.10;;;;;;;15.92;100.00;98983.88;2079846;28;20458;-74
2021/07/24 04:43:10;;;;;;;33.40;30.08;;;;;;;15.97;100.00;98977.50;2088242;28;20253;-74
2021/07/24 04:44:12;;;;;;;34.60;30.93;;;;;;;16.02;100.00;98977.28;2088812;28;20229;-75
2021/07/24 04:45:12;;;;;;;33.77;30.23;;;;;;;16.06;100.00;98978.19;2088898;28;20306;-74
2021/07/24 04:46:14;;;;;;;33.63;30.27;;;;;;;16.10;100.00;98976.41;2088867;28;20442;-75
2021/07/24 04:47:14;;;;;;;34.42;30.92;;;;;;;16.14;100.00;98969.22;2088875;28;20222;-75